Time;durP1;ratioP1;P1;durP2;ratioP2;P2;SDS_P1;SDS_P2;PMS_P1;PMS_P2;Temp;Humidity;BMP_temperature;BMP_pressure;BME280_temperature;BME280_humidity;BME280_pressure;Samples;Min_cycle;Max_cycle;Signal;HPM_P1;HPM_P2
2021/05/01 00:01:33;;;;;;;18.08;7.70;;;;;;;11.85;78.20;97866.16;5024644;28;20026;-63
2021/05/01 00:03:59;;;;;;;13.13;6.97;;;;;;;11.86;78.28;97870.41;5030876;28;20333;-63
2021/05/01 00:06:24;;;;;;;15.00;8.35;;;;;;;11.98;78.01;97863.97;5023137;28;20048;-63
2021/05/01 00:08:49;;;;;;;12.00;6.55;;;;;;;12.04;77.69;97862.91;5022748;28;20032;-63
2021/05/01 00:11:15;;;;;;;13.27;6.82;;;;;;;12.24;76.82;97851.00;5024623;28;20057;-63
2021/05/01 00:13:40;;;;;;;10.23;5.95;;;;;;;12.51;75.34;97861.13;5024621;28;20041;-63
2021/05/01 00:16:07;;;;;;;6.93;4.75;;;;;;;12.79;73.68;97857.38;5023548;28;20026;-63
2021/05/01 00:18:33;;;;;;;10.48;5.15;;;;;;;13.02;72.45;97837.63;5021935;28;20371;-63
2021/05/01 00:20:58;;;;;;;7.47;4.32;;;;;;;13.30;71.21;97863.06;5021904;28;20272;-63
2021/05/01 00:23:24;;;;;;;8.02;4.78;;;;;;;13.45;70.39;97860.66;5024744;28;20032;-63
2021/05/01 00:25:49;;;;;;;10.70;4.82;;;;;;;13.52;70.77;97859.50;5024677;28;20029;-63
2021/05/01 00:28:15;;;;;;;9.55;4.88;;;;;;;13.38;70.96;97859.25;5023094;28;20021;-63
2021/05/01 00:30:40;;;;;;;10.32;5.43;;;;;;;13.16;71.36;97843.03;5025965;28;20079;-63
2021/05/01 00:33:07;;;;;;;11.38;10.15;;;;;;;13.38;70.69;97855.84;5025808;28;20362;-63
2021/05/01 00:35:33;;;;;;;12.07;5.00;;;;;;;13.46;70.70;97849.47;5025905;28;20330;-63
2021/05/01 00:37:59;;;;;;;10.13;5.30;;;;;;;13.70;69.53;97847.56;5024647;28;20041;-63
2021/05/01 00:40:24;;;;;;;11.30;10.30;;;;;;;13.78;69.15;97842.09;5024112;28;20033;-63
2021/05/01 00:42:50;;;;;;;8.90;4.88;;;;;;;13.77;68.72;97841.25;5025104;28;20112;-64
2021/05/01 00:45:16;;;;;;;9.05;4.45;;;;;;;13.75;69.17;97847.38;5022930;28;20087;-63
2021/05/01 00:47:41;;;;;;;8.73;5.53;;;;;;;13.48;69.90;97849.41;5022625;28;20124;-63
2021/05/01 00:50:07;;;;;;;9.10;5.35;;;;;;;13.33;70.99;97844.91;5022995;28;20116;-63
2021/05/01 00:52:34;;;;;;;10.90;5.50;;;;;;;13.18;71.32;97846.41;5025095;28;20132;-63
2021/05/01 00:55:02;;;;;;;10.70;5.75;;;;;;;13.00;72.11;97852.25;5021677;28;20084;-63
2021/05/01 00:57:28;;;;;;;9.15;5.25;;;;;;;12.85;72.11;97848.59;5024254;28;20100;-63
2021/05/01 00:59:54;;;;;;;8.80;5.60;;;;;;;12.77;72.82;97866.88;5023930;28;20058;-63
2021/05/01 01:02:24;;;;;;;8.02;4.90;;;;;;;12.75;73.59;97862.72;5023158;28;20320;-63
2021/05/01 01:04:50;;;;;;;10.57;6.05;;;;;;;12.75;73.91;97876.41;5025099;28;20348;-63
2021/05/01 01:07:15;;;;;;;8.25;4.95;;;;;;;12.71;73.78;97880.00;5021835;28;20072;-63
2021/05/01 01:09:41;;;;;;;9.63;5.55;;;;;;;12.74;73.83;97889.31;5025153;28;20045;-63
2021/05/01 01:12:07;;;;;;;8.35;5.20;;;;;;;12.65;73.74;97884.53;5027275;28;20042;-63
2021/05/01 01:14:32;;;;;;;6.18;4.90;;;;;;;12.54;74.21;97884.97;5025916;28;20026;-63
2021/05/01 01:16:58;;;;;;;10.60;5.82;;;;;;;12.43;74.59;97887.13;5027774;28;20407;-63
2021/05/01 01:19:23;;;;;;;8.15;5.05;;;;;;;12.31;74.87;97888.41;5026213;28;20030;-63
2021/05/01 01:21:50;;;;;;;7.10;4.78;;;;;;;12.25;75.20;97888.66;5028018;28;20033;-63
2021/05/01 01:24:16;;;;;;;8.68;5.28;;;;;;;12.15;75.53;97900.16;5024899;28;20032;-63
2021/05/01 01:26:42;;;;;;;8.60;5.55;;;;;;;12.06;75.84;97908.22;5026841;28;20074;-64
2021/05/01 01:29:12;;;;;;;9.23;5.28;;;;;;;12.00;76.47;97902.47;5029091;28;20029;-63
2021/05/01 01:31:38;;;;;;;8.27;5.47;;;;;;;11.94;76.65;97905.25;5028547;28;20017;-63
2021/05/01 01:34:04;;;;;;;9.32;5.57;;;;;;;11.90;76.77;97907.94;5026555;28;20075;-63
2021/05/01 01:36:29;;;;;;;6.90;4.50;;;;;;;11.84;76.56;97910.72;5026141;28;20040;-63
2021/05/01 01:38:55;;;;;;;9.80;6.35;;;;;;;11.84;77.05;97920.13;5025171;28;20025;-64
2021/05/01 01:41:20;;;;;;;14.40;7.05;;;;;;;11.86;77.17;97919.22;5025110;28;20044;-63
2021/05/01 01:43:46;;;;;;;11.75;5.82;;;;;;;11.89;76.77;97923.38;5027582;28;20034;-62
2021/05/01 01:46:11;;;;;;;10.30;5.53;;;;;;;11.89;77.48;97921.66;5024564;28;20036;-62
2021/05/01 01:48:37;;;;;;;6.95;4.68;;;;;;;12.07;77.50;97920.16;5025425;28;20368;-62
2021/05/01 01:51:03;;;;;;;11.43;5.45;;;;;;;12.10;76.97;97924.34;5025565;28;20026;-63
2021/05/01 01:53:28;;;;;;;6.57;4.55;;;;;;;12.05;77.22;97916.00;5029549;28;20418;-62
2021/05/01 01:55:54;;;;;;;9.40;5.05;;;;;;;12.01;77.54;97917.00;5024634;28;20156;-62
2021/05/01 01:58:20;;;;;;;5.82;4.35;;;;;;;12.32;76.67;97928.66;5026065;28;20040;-62
2021/05/01 02:00:47;;;;;;;8.40;4.80;;;;;;;12.56;76.22;97929.44;5027888;28;20036;-62
2021/05/01 02:03:14;;;;;;;7.25;4.20;;;;;;;12.73;75.32;97924.50;5023176;28;20083;-62
2021/05/01 02:05:41;;;;;;;6.28;3.58;;;;;;;12.74;74.77;97933.88;5026429;28;20025;-62
2021/05/01 02:08:07;;;;;;;4.95;3.88;;;;;;;12.64;74.72;97939.47;5026529;28;20038;-62
2021/05/01 02:10:33;;;;;;;6.38;4.05;;;;;;;12.53;75.31;97932.16;5025506;28;20115;-62
2021/05/01 02:12:58;;;;;;;6.68;3.90;;;;;;;12.43;76.14;97930.84;5029695;28;20147;-62
2021/05/01 02:15:24;;;;;;;8.25;4.65;;;;;;;12.39;76.39;97928.44;5031231;28;20091;-62
2021/05/01 02:17:52;;;;;;;9.25;5.25;;;;;;;12.34;76.87;97926.03;5025169;28;20041;-62
2021/05/01 02:20:20;;;;;;;7.18;4.35;;;;;;;12.25;77.10;97936.66;5031505;28;20124;-62
2021/05/01 02:22:46;;;;;;;5.80;3.95;;;;;;;12.18;77.40;97937.75;5024127;28;20079;-63
2021/05/01 02:25:12;;;;;;;7.18;4.32;;;;;;;12.42;76.93;97938.59;5025387;28;20322;-62
2021/05/01 02:27:38;;;;;;;13.25;6.05;;;;;;;12.50;75.87;97927.13;5026569;28;20029;-62
2021/05/01 02:30:10;;;;;;;7.95;4.07;;;;;;;12.57;76.02;97932.84;5026738;28;20398;-62
2021/05/01 02:32:35;;;;;;;9.00;4.03;;;;;;;12.58;75.77;97934.53;5024926;28;20017;-62
2021/05/01 02:35:01;;;;;;;11.70;4.78;;;;;;;12.57;75.62;97933.69;5027880;28;20025;-62
2021/05/01 02:37:26;;;;;;;8.45;5.03;;;;;;;12.57;75.65;97938.00;5023898;28;20029;-63
2021/05/01 02:39:52;;;;;;;5.88;3.80;;;;;;;12.60;75.13;97943.84;5028218;28;20134;-62
2021/05/01 02:42:17;;;;;;;6.85;4.03;;;;;;;12.58;75.00;97940.53;5027321;28;20468;-62
2021/05/01 02:44:43;;;;;;;6.72;3.85;;;;;;;12.72;74.33;97947.72;5025526;28;20041;-63
2021/05/01 02:47:08;;;;;;;8.43;4.53;;;;;;;12.71;73.82;97940.91;5022635;28;20028;-62
2021/05/01 02:49:34;;;;;;;5.82;3.83;;;;;;;12.71;73.65;97949.44;5026479;28;20029;-62
2021/05/01 02:51:59;;;;;;;7.55;4.15;;;;;;;12.80;72.95;97943.13;5027692;28;20040;-62
2021/05/01 02:54:25;;;;;;;8.20;4.65;;;;;;;12.96;72.25;97946.75;5022574;28;20206;-62
2021/05/01 02:56:51;;;;;;;5.25;3.85;;;;;;;12.91;72.22;97945.25;5026576;28;20025;-62
2021/05/01 02:59:16;;;;;;;10.63;4.47;;;;;;;12.85;72.29;97948.94;5025741;28;20158;-62
2021/05/01 03:01:41;;;;;;;5.47;3.63;;;;;;;12.79;72.38;97965.41;5026604;28;20195;-63
2021/05/01 03:04:07;;;;;;;6.93;3.47;;;;;;;12.78;72.57;97963.75;5023530;28;20334;-62
2021/05/01 03:06:33;;;;;;;5.15;3.30;;;;;;;12.77;72.29;97969.78;5025288;28;20112;-62
2021/05/01 03:08:58;;;;;;;4.63;3.33;;;;;;;12.71;72.24;97975.16;5027314;28;20026;-62
2021/05/01 03:11:24;;;;;;;5.70;3.78;;;;;;;12.60;72.81;97974.72;5025386;28;20441;-62
2021/05/01 03:13:49;;;;;;;4.88;3.50;;;;;;;12.72;73.19;97979.44;5021769;28;20075;-62
2021/05/01 03:16:15;;;;;;;8.50;4.50;;;;;;;12.76;72.44;97980.97;5022556;28;20029;-62
2021/05/01 03:18:40;;;;;;;5.53;3.47;;;;;;;12.80;72.69;97992.00;5022926;28;20036;-62
2021/05/01 03:21:05;;;;;;;9.57;6.05;;;;;;;12.83;72.54;97991.88;5027004;28;20429;-62
2021/05/01 03:23:31;;;;;;;5.78;3.65;;;;;;;12.79;72.29;97980.00;5024986;28;20033;-63
2021/05/01 03:25:56;;;;;;;11.55;5.63;;;;;;;12.81;72.72;97981.63;5023731;28;20036;-62
2021/05/01 03:28:23;;;;;;;12.90;6.20;;;;;;;12.78;72.40;97992.03;5024134;28;20282;-62
2021/05/01 03:30:49;;;;;;;6.50;4.13;;;;;;;12.95;72.04;97993.13;5024652;28;20121;-62
2021/05/01 03:33:15;;;;;;;4.15;3.70;;;;;;;12.99;71.89;97997.25;5021896;28;20096;-62
2021/05/01 03:35:41;;;;;;;6.90;3.85;;;;;;;13.02;71.60;97997.16;5024739;28;20021;-62
2021/05/01 03:38:06;;;;;;;10.63;4.95;;;;;;;13.14;71.04;98002.69;5022682;28;20037;-62
2021/05/01 03:40:32;;;;;;;6.45;3.95;;;;;;;13.20;70.74;98004.16;5026203;28;20120;-62
2021/05/01 03:42:57;;;;;;;7.10;4.40;;;;;;;13.12;71.15;98008.78;5023178;28;20025;-62
2021/05/01 03:45:22;;;;;;;5.28;3.47;;;;;;;13.06;71.54;98007.28;5023251;28;20397;-62
2021/05/01 03:47:48;;;;;;;9.20;4.40;;;;;;;13.10;71.49;98010.56;5025593;28;20034;-62
2021/05/01 03:50:13;;;;;;;4.05;3.63;;;;;;;13.06;71.56;98012.41;5025438;28;20041;-62
2021/05/01 03:52:39;;;;;;;9.10;4.75;;;;;;;12.97;72.02;98012.75;5022117;28;20028;-62
2021/05/01 03:55:05;;;;;;;8.13;4.95;;;;;;;13.00;72.37;98019.50;5022887;28;20032;-62
2021/05/01 03:57:31;;;;;;;7.03;4.35;;;;;;;13.06;72.19;98015.00;5021986;28;20294;-62
2021/05/01 03:59:56;;;;;;;7.50;5.45;;;;;;;13.16;72.20;98010.31;5024597;28;20040;-62
2021/05/01 04:02:22;;;;;;;9.32;5.82;;;;;;;13.27;71.40;98013.34;5024629;28;20030;-63
2021/05/01 04:04:47;;;;;;;7.05;5.53;;;;;;;13.28;71.76;98013.25;5027473;28;20481;-63
2021/05/01 04:07:13;;;;;;;8.13;5.93;;;;;;;13.31;70.97;98008.91;5024723;28;20025;-62
2021/05/01 04:09:38;;;;;;;11.80;6.72;;;;;;;13.33;71.13;98013.06;5021095;28;20083;-63
2021/05/01 04:12:04;;;;;;;14.48;7.97;;;;;;;13.32;71.17;98006.28;5026095;28;20100;-62
2021/05/01 04:14:30;;;;;;;13.68;7.60;;;;;;;13.33;71.01;97997.63;5023257;28;20029;-63
2021/05/01 04:16:55;;;;;;;11.05;6.78;;;;;;;13.29;70.48;97996.06;5027860;28;20021;-62
2021/05/01 04:19:20;;;;;;;10.40;6.75;;;;;;;13.31;69.40;98009.75;5024294;28;20108;-62
2021/05/01 04:21:46;;;;;;;10.35;7.00;;;;;;;13.26;69.14;98009.91;5025922;28;20040;-62
2021/05/01 04:24:11;;;;;;;12.27;8.02;;;;;;;13.36;68.47;98015.56;5022791;28;20060;-62
2021/05/01 04:26:37;;;;;;;13.75;7.40;;;;;;;13.39;68.28;98023.16;5021677;28;20052;-62
2021/05/01 04:29:03;;;;;;;13.85;8.05;;;;;;;13.37;68.23;98034.38;5023042;28;20125;-62
2021/05/01 04:31:28;;;;;;;11.57;7.70;;;;;;;13.39;67.92;98032.59;5023892;28;20124;-62
2021/05/01 04:33:54;;;;;;;13.27;8.45;;;;;;;13.44;67.82;98044.41;5023506;28;20041;-62
2021/05/01 04:36:19;;;;;;;10.93;6.97;;;;;;;13.50;67.85;98048.44;5022585;28;20041;-62
2021/05/01 04:38:45;;;;;;;8.85;6.25;;;;;;;13.54;67.00;98042.28;5023069;28;20339;-62
2021/05/01 04:41:11;;;;;;;10.63;7.15;;;;;;;13.59;66.75;98037.78;5021867;28;20693;-62
2021/05/01 04:43:38;;;;;;;9.57;7.20;;;;;;;13.65;66.46;98034.97;5025482;28;20022;-62
2021/05/01 04:46:04;;;;;;;11.45;7.97;;;;;;;13.73;65.96;98043.22;5024353;28;20029;-62
2021/05/01 04:48:30;;;;;;;11.10;7.25;;;;;;;13.71;66.51;98050.16;5022984;28;20025;-62
2021/05/01 04:50:56;;;;;;;10.88;6.82;;;;;;;13.80;65.49;98044.63;5024858;28;20082;-62
2021/05/01 04:53:22;;;;;;;11.90;7.95;;;;;;;13.80;66.22;98048.94;5022408;28;20041;-62
2021/05/01 04:55:48;;;;;;;10.65;7.68;;;;;;;13.86;66.25;98054.69;5024114;28;20021;-62
2021/05/01 04:58:14;;;;;;;10.93;7.72;;;;;;;13.88;64.94;98050.31;5030199;28;20032;-62
2021/05/01 05:00:39;;;;;;;9.77;7.55;;;;;;;13.93;64.76;98050.97;5022573;28;20044;-62
2021/05/01 05:03:05;;;;;;;13.65;8.30;;;;;;;13.93;64.24;98058.69;5023553;28;20029;-62
2021/05/01 05:05:30;;;;;;;15.68;9.75;;;;;;;14.01;63.59;98056.63;5026473;28;20323;-62
2021/05/01 05:07:56;;;;;;;12.57;8.95;;;;;;;13.87;63.80;98050.38;5023046;28;20030;-62
2021/05/01 05:10:21;;;;;;;15.77;10.02;;;;;;;13.95;63.86;98066.38;5021213;28;20037;-62
2021/05/01 05:12:48;;;;;;;16.88;9.52;;;;;;;13.96;63.03;98061.13;5024060;28;20057;-62
2021/05/01 05:15:15;;;;;;;14.48;9.27;;;;;;;13.98;63.63;98061.06;5024076;28;20029;-62
2021/05/01 05:17:40;;;;;;;14.73;8.98;;;;;;;13.91;64.29;98065.66;5026057;28;20435;-62
2021/05/01 05:20:07;;;;;;;15.68;10.15;;;;;;;13.88;64.29;98060.63;5025726;28;20026;-63
2021/05/01 05:22:32;;;;;;;13.43;9.27;;;;;;;13.96;63.32;98061.13;5024564;28;20410;-62
2021/05/01 05:24:58;;;;;;;18.73;10.88;;;;;;;13.94;63.29;98064.69;5021345;28;20072;-62
2021/05/01 05:27:23;;;;;;;11.27;8.95;;;;;;;14.02;62.80;98058.31;5025380;28;20033;-62
2021/05/01 05:29:52;;;;;;;12.75;9.23;;;;;;;14.01;62.38;98051.47;5024779;28;20029;-63
2021/05/01 05:32:19;;;;;;;11.63;8.93;;;;;;;14.03;61.33;98056.56;5023362;28;20032;-63
2021/05/01 05:34:45;;;;;;;13.27;8.98;;;;;;;14.05;61.47;98049.59;5022584;28;20037;-63
2021/05/01 05:37:11;;;;;;;15.45;9.50;;;;;;;14.19;60.80;98047.28;5029065;28;20382;-63
2021/05/01 05:39:38;;;;;;;14.18;8.55;;;;;;;14.34;61.57;98054.34;5022001;28;20024;-63
2021/05/01 05:42:05;;;;;;;12.63;8.30;;;;;;;14.41;61.06;98045.50;5023647;28;20040;-64
2021/05/01 05:44:31;;;;;;;11.07;8.05;;;;;;;14.58;59.69;98061.06;5026972;28;20370;-63
2021/05/01 05:46:56;;;;;;;19.48;9.18;;;;;;;14.68;59.54;98056.34;5027513;28;20037;-62
2021/05/01 05:49:22;;;;;;;12.02;7.60;;;;;;;14.88;58.19;98038.22;5024713;28;20018;-63
2021/05/01 05:51:47;;;;;;;12.27;7.90;;;;;;;14.93;58.44;98045.75;5029394;28;20044;-63
2021/05/01 05:54:13;;;;;;;16.20;9.32;;;;;;;14.98;57.66;98052.34;5024540;28;20040;-62
2021/05/01 05:56:39;;;;;;;10.70;7.55;;;;;;;15.06;57.47;98063.16;5028946;28;20048;-62
2021/05/01 05:59:06;;;;;;;10.82;7.10;;;;;;;15.06;58.20;98054.59;5026411;28;20036;-63
2021/05/01 06:01:33;;;;;;;10.73;7.63;;;;;;;15.07;58.05;98066.59;5025379;28;20307;-62
2021/05/01 06:03:59;;;;;;;11.90;7.53;;;;;;;14.93;57.80;98061.22;5029441;28;20410;-60
2021/05/01 06:06:33;;;;;;;15.55;9.25;;;;;;;14.91;58.93;98070.78;5026064;28;20036;-62
2021/05/01 06:08:58;;;;;;;11.27;8.20;;;;;;;14.75;57.98;98074.97;5026391;28;20467;-63
2021/05/01 06:11:24;;;;;;;12.93;8.38;;;;;;;14.82;58.67;98069.44;5026496;28;20124;-62
2021/05/01 06:13:51;;;;;;;12.68;8.35;;;;;;;14.96;57.77;98087.75;5005000;28;20343;-63
2021/05/01 06:16:20;;;;;;;12.25;7.00;;;;;;;15.05;57.04;98083.91;5004064;28;20030;-63
2021/05/01 06:18:46;;;;;;;9.00;7.57;;;;;;;15.00;56.75;98091.00;5008473;28;20026;-63
2021/05/01 06:21:12;;;;;;;9.60;6.38;;;;;;;14.92;56.88;98095.69;5008300;28;20026;-63
2021/05/01 06:23:40;;;;;;;11.85;7.28;;;;;;;15.10;56.36;98084.53;5007344;28;20049;-63
2021/05/01 06:26:06;;;;;;;8.52;6.82;;;;;;;14.94;56.74;98092.13;5007111;28;20037;-63
2021/05/01 06:28:32;;;;;;;10.82;7.65;;;;;;;15.22;56.97;98085.72;5006194;28;20034;-63
2021/05/01 06:31:02;;;;;;;10.65;7.10;;;;;;;15.40;56.10;98085.66;5005937;28;20172;-63
2021/05/01 06:33:28;;;;;;;11.88;7.70;;;;;;;15.57;55.63;98090.09;5005550;28;20034;-63
2021/05/01 06:35:54;;;;;;;12.45;8.15;;;;;;;15.56;55.83;98075.50;5005362;28;20311;-63
2021/05/01 06:38:20;;;;;;;9.90;6.97;;;;;;;15.67;55.19;98080.13;5008156;28;20081;-64
2021/05/01 06:40:49;;;;;;;16.80;9.60;;;;;;;15.84;55.55;98075.00;5006963;28;20263;-63
2021/05/01 06:43:47;;;;;;;11.13;7.45;;;;;;;16.12;54.08;98075.31;4988877;28;20057;-63
2021/05/01 06:46:17;;;;;;;15.73;9.60;;;;;;;16.22;53.79;98073.91;4999477;28;20053;-64
2021/05/01 06:48:47;;;;;;;10.93;8.20;;;;;;;16.21;53.14;98079.19;5008114;28;20363;-64
2021/05/01 06:51:13;;;;;;;16.40;8.55;;;;;;;16.29;53.34;98082.22;5008145;28;20045;-64
2021/05/01 06:53:39;;;;;;;11.80;8.75;;;;;;;16.26;53.39;98085.78;5011522;28;20030;-64
2021/05/01 06:56:05;;;;;;;12.55;8.05;;;;;;;16.27;53.90;98097.81;5006799;28;20100;-64
2021/05/01 06:58:33;;;;;;;14.80;9.63;;;;;;;16.33;52.86;98092.34;5006677;28;20030;-64
2021/05/01 07:01:02;;;;;;;14.90;9.30;;;;;;;16.41;53.15;98099.72;5007453;28;20076;-64
2021/05/01 07:03:31;;;;;;;13.93;9.10;;;;;;;16.63;52.25;98115.00;5003370;28;20026;-64
2021/05/01 07:05:57;;;;;;;16.85;10.65;;;;;;;16.81;51.64;98116.63;5002928;28;20499;-64
2021/05/01 07:08:24;;;;;;;14.70;9.13;;;;;;;16.91;51.50;98120.41;5004068;28;20080;-64
2021/05/01 07:10:49;;;;;;;13.52;10.60;;;;;;;16.90;51.74;98116.16;5005284;28;20049;-64
2021/05/01 07:13:16;;;;;;;10.48;8.40;;;;;;;16.91;51.59;98115.22;5024439;28;20079;-64
2021/05/01 07:15:42;;;;;;;13.88;8.85;;;;;;;16.86;51.65;98109.47;5026881;28;20037;-64
2021/05/01 07:18:10;;;;;;;9.88;7.22;;;;;;;16.88;51.85;98108.47;5025443;28;20439;-63
2021/05/01 07:20:36;;;;;;;10.00;7.13;;;;;;;16.94;51.46;98107.28;5027320;28;20084;-63
2021/05/01 07:23:02;;;;;;;12.52;9.00;;;;;;;16.92;51.43;98114.31;5024121;28;20037;-64
2021/05/01 07:25:27;;;;;;;8.95;8.05;;;;;;;16.86;51.51;98107.72;5027604;28;20371;-64
2021/05/01 07:28:03;;;;;;;11.13;8.90;;;;;;;16.88;51.52;98105.88;5025052;28;20029;-64
2021/05/01 07:30:30;;;;;;;10.73;9.15;;;;;;;16.73;52.13;98098.06;5023293;28;20401;-64
2021/05/01 07:33:12;;;;;;;8.80;7.90;;;;;;;16.83;51.95;98099.28;5024650;28;20286;-63
2021/05/01 07:35:41;;;;;;;14.73;9.80;;;;;;;17.10;50.94;98091.78;5025336;28;20052;-64
2021/05/01 07:38:16;;;;;;;9.85;7.78;;;;;;;17.27;50.73;98082.16;5025773;28;20034;-63
2021/05/01 07:40:43;;;;;;;9.60;8.18;;;;;;;17.38;50.36;98075.56;5024984;28;20478;-63
2021/05/01 07:43:15;;;;;;;10.05;8.43;;;;;;;17.52;50.37;98081.69;5022347;28;20021;-64
2021/05/01 07:45:40;;;;;;;13.00;8.52;;;;;;;17.53;49.78;98077.31;5024636;28;20021;-66
2021/05/01 07:48:09;;;;;;;9.75;7.88;;;;;;;17.55;50.22;98078.06;5020212;28;20034;-64
2021/05/01 07:50:36;;;;;;;12.90;9.10;;;;;;;17.54;50.01;98079.81;5021143;28;20081;-63
2021/05/01 07:53:03;;;;;;;9.57;8.18;;;;;;;17.68;49.40;98076.50;5024710;28;20382;-64
2021/05/01 07:55:29;;;;;;;9.57;7.85;;;;;;;17.52;50.20;98055.75;5024245;28;20033;-64
2021/05/01 07:57:55;;;;;;;10.10;8.98;;;;;;;17.38;50.44;98054.84;5022723;28;20056;-64
2021/05/01 08:00:21;;;;;;;10.80;8.65;;;;;;;17.58;49.97;98054.59;5025119;28;20437;-64
2021/05/01 08:02:48;;;;;;;10.98;8.75;;;;;;;17.49;50.91;98049.88;5022454;28;20030;-64
2021/05/01 08:05:18;;;;;;;13.93;8.35;;;;;;;17.55;50.83;98037.44;5021708;28;20029;-64
2021/05/01 08:07:44;;;;;;;9.05;7.72;;;;;;;17.58;50.75;98049.41;5021136;28;20080;-64
2021/05/01 08:10:10;;;;;;;11.32;8.23;;;;;;;17.76;50.66;98048.38;5020897;28;20025;-67
2021/05/01 08:12:36;;;;;;;11.25;9.02;;;;;;;17.77;49.46;98047.44;5023403;28;20088;-67
2021/05/01 08:15:03;;;;;;;10.90;8.80;;;;;;;17.94;49.45;98062.88;5022212;28;20045;-68
2021/05/01 08:17:29;;;;;;;10.75;9.48;;;;;;;17.88;49.42;98067.56;5035784;28;20025;-67
2021/05/01 08:19:55;;;;;;;12.80;9.02;;;;;;;17.93;49.34;98076.75;5024709;28;20279;-64
2021/05/01 08:22:21;;;;;;;10.15;9.15;;;;;;;18.07;49.01;98089.78;5023256;28;20022;-67
2021/05/01 08:24:47;;;;;;;10.27;8.88;;;;;;;18.06;48.50;98098.50;5021781;28;20066;-66
2021/05/01 08:27:13;;;;;;;11.65;8.85;;;;;;;18.02;48.70;98090.97;5023946;28;20124;-64
2021/05/01 08:29:38;;;;;;;10.82;9.07;;;;;;;17.96;48.35;98086.97;5021713;28;20097;-64
2021/05/01 08:32:04;;;;;;;14.40;9.68;;;;;;;17.97;48.80;98083.44;5023516;28;20064;-66
2021/05/01 08:34:30;;;;;;;688.90;641.63;;;;;;;18.24;48.46;98081.03;5023942;28;20375;-64
2021/05/01 08:36:55;;;;;;;680.75;637.80;;;;;;;18.05;48.21;98096.81;5024117;28;20022;-65
2021/05/01 08:39:21;;;;;;;634.60;597.33;;;;;;;18.07;48.69;98105.34;5023629;28;20644;-64
2021/05/01 08:41:46;;;;;;;535.25;505.73;;;;;;;18.04;48.32;98102.91;5022916;28;20072;-65
2021/05/01 08:44:12;;;;;;;518.53;489.48;;;;;;;18.29;48.19;98107.50;5020696;28;20044;-64
2021/05/01 08:46:38;;;;;;;576.58;542.50;;;;;;;18.43;48.39;98098.91;5022483;28;20030;-64
2021/05/01 08:49:06;;;;;;;462.33;437.50;;;;;;;18.59;48.55;98104.91;5021366;28;20097;-64
2021/05/01 08:51:32;;;;;;;437.65;414.45;;;;;;;18.59;47.26;98103.16;5025015;28;20846;-65
2021/05/01 08:53:58;;;;;;;424.52;401.15;;;;;;;18.60;47.65;98102.22;5021068;28;20021;-65
2021/05/01 08:56:24;;;;;;;457.85;433.33;;;;;;;18.86;46.83;98089.44;5024180;28;20030;-66
2021/05/01 08:58:53;;;;;;;664.03;621.40;;;;;;;19.03;46.71;98077.06;5023632;28;20022;-68
2021/05/01 09:01:21;;;;;;;238.38;226.38;;;;;;;19.07;47.41;98080.31;5022256;28;20068;-66
2021/05/01 09:03:47;;;;;;;195.43;186.45;;;;;;;18.85;46.97;98073.00;5022789;28;20052;-66
2021/05/01 09:06:13;;;;;;;185.57;177.00;;;;;;;18.96;47.05;98078.41;5025796;28;20022;-66
2021/05/01 09:08:42;;;;;;;183.18;174.00;;;;;;;18.96;47.62;98072.34;5022595;28;20072;-66
2021/05/01 09:11:08;;;;;;;192.10;183.13;;;;;;;19.11;47.55;98063.59;5023796;28;20057;-67
2021/05/01 09:13:47;;;;;;;208.68;199.25;;;;;;;19.27;46.91;98063.47;5021713;28;20128;-64
2021/05/01 09:16:15;;;;;;;224.05;213.70;;;;;;;19.39;46.13;98057.50;5023493;28;20113;-66
2021/05/01 09:18:55;;;;;;;375.60;356.48;;;;;;;19.35;46.11;98061.25;5035100;28;20104;-67
2021/05/01 09:21:27;;;;;;;688.50;644.85;;;;;;;19.36;45.53;98062.88;5022875;28;20383;-64
2021/05/01 09:23:53;;;;;;;14.00;9.32;;;;;;;19.43;46.16;98070.25;5022648;28;20046;-66
2021/05/01 09:26:40;;;;;;;14.65;9.48;;;;;;;19.27;45.97;98058.25;5022281;28;20097;-66
2021/05/01 09:29:06;;;;;;;18.83;10.02;;;;;;;19.56;45.74;98059.91;5023331;28;20044;-66
2021/05/01 09:31:46;;;;;;;18.05;12.00;;;;;;;19.94;46.27;98068.63;5024135;28;20282;-65
2021/05/01 09:34:12;;;;;;;14.38;10.00;;;;;;;19.87;45.67;98064.75;5026308;28;20291;-66
2021/05/01 09:36:39;;;;;;;17.17;10.88;;;;;;;19.74;46.13;98063.06;5026484;28;20028;-66
2021/05/01 09:39:08;;;;;;;18.20;11.27;;;;;;;19.49;45.87;98069.84;5026668;28;20048;-66
2021/05/01 09:41:37;;;;;;;17.75;10.43;;;;;;;19.94;45.48;98068.63;5030012;28;20021;-65
2021/05/01 09:44:06;;;;;;;19.23;12.13;;;;;;;20.07;45.07;98061.69;5027089;28;20026;-63
2021/05/01 09:46:42;;;;;;;18.65;10.63;;;;;;;20.19;45.04;98054.84;5024382;28;20037;-63
2021/05/01 09:49:20;;;;;;;18.95;11.77;;;;;;;19.72;45.46;98050.16;5024460;28;20021;-63
2021/05/01 09:51:45;;;;;;;15.98;10.55;;;;;;;19.78;45.73;98052.34;5025112;28;20026;-63
2021/05/01 09:54:13;;;;;;;14.30;9.60;;;;;;;19.88;45.72;98052.59;5025013;28;20029;-63
2021/05/01 09:56:43;;;;;;;17.73;9.80;;;;;;;19.92;45.28;98041.88;5026098;28;20032;-63
2021/05/01 09:59:10;;;;;;;19.33;10.13;;;;;;;19.97;44.59;98036.38;5025284;28;20468;-63
2021/05/01 10:01:36;;;;;;;16.45;10.68;;;;;;;19.88;44.85;98034.38;5008889;28;20160;-63
2021/05/01 10:04:21;;;;;;;18.38;10.27;;;;;;;19.95;45.46;98013.06;5025217;28;20037;-63
2021/05/01 10:06:53;;;;;;;13.60;8.77;;;;;;;19.91;45.47;98016.78;5026674;28;20675;-63
2021/05/01 10:09:27;;;;;;;384.60;360.30;;;;;;;19.69;45.44;98016.53;5043997;28;20125;-64
2021/05/01 10:12:02;;;;;;;687.78;647.15;;;;;;;19.60;45.96;98011.97;5024765;28;20075;-64
2021/05/01 10:14:51;;;;;;;;;;;;;;;19.91;45.78;98011.59;5026085;28;20026;-64
2021/05/01 10:17:22;;;;;;;624.35;588.47;;;;;;;20.23;44.79;98019.03;5022887;28;19913;-63
2021/05/01 10:20:02;;;;;;;343.52;325.13;;;;;;;20.42;43.98;98015.06;5024112;28;20384;-62
2021/05/01 10:22:31;;;;;;;205.85;195.02;;;;;;;20.24;44.55;98015.50;5025461;28;20390;-64
2021/05/01 10:24:59;;;;;;;167.88;159.02;;;;;;;20.76;44.01;98016.19;5025358;28;20034;-63
2021/05/01 10:27:25;;;;;;;113.03;106.88;;;;;;;20.99;43.64;98011.97;5024197;28;20107;-64
2021/05/01 10:30:15;;;;;;;110.00;104.15;;;;;;;21.09;43.11;98006.94;5025264;28;20014;-64
2021/05/01 10:32:51;;;;;;;328.13;312.05;;;;;;;21.31;43.19;97997.47;5024293;28;20067;-64
2021/05/01 10:35:18;;;;;;;560.10;529.03;;;;;;;21.28;42.35;97999.47;5023997;28;20318;-63
2021/05/01 10:37:51;;;;;;;493.83;466.52;;;;;;;20.70;43.62;98008.81;5025744;28;20033;-63
2021/05/01 10:40:17;;;;;;;509.02;478.02;;;;;;;20.88;43.53;98015.31;5026732;28;20403;-63
2021/05/01 10:42:43;;;;;;;630.03;591.38;;;;;;;20.83;43.60;97999.19;5024167;28;20064;-62
2021/05/01 10:45:09;;;;;;;512.40;481.58;;;;;;;20.82;43.50;98009.72;5023506;28;20057;-63
2021/05/01 10:47:35;;;;;;;382.27;360.55;;;;;;;20.42;43.90;98001.22;5025305;28;20026;-63
2021/05/01 10:50:20;;;;;;;615.72;579.55;;;;;;;20.74;43.59;98002.44;5022236;28;20033;-63
2021/05/01 10:52:48;;;;;;;142.02;135.07;;;;;;;20.43;44.08;97995.91;5025318;28;20397;-63
2021/05/01 10:55:13;;;;;;;547.55;517.60;;;;;;;20.05;44.67;98003.69;5025542;28;20037;-63
2021/05/01 10:57:39;;;;;;;410.73;388.77;;;;;;;20.25;44.32;97994.53;5025623;28;20030;-63
2021/05/01 11:00:05;;;;;;;116.13;109.75;;;;;;;20.14;44.61;97989.25;5023666;28;20458;-62
2021/05/01 11:02:36;;;;;;;55.90;51.75;;;;;;;20.51;44.06;97979.75;5026357;28;20037;-62
2021/05/01 11:05:05;;;;;;;20.35;12.07;;;;;;;20.58;43.61;97977.56;5023094;28;20279;-62
2021/05/01 11:07:43;;;;;;;23.10;12.57;;;;;;;20.96;43.22;97973.91;5023752;28;20038;-62
2021/05/01 11:10:11;;;;;;;18.35;11.98;;;;;;;20.88;43.12;97981.44;5022912;28;20029;-62
2021/05/01 11:12:38;;;;;;;24.88;13.82;;;;;;;21.17;42.94;97983.78;5024265;28;20712;-63
2021/05/01 11:15:11;;;;;;;47.40;43.92;;;;;;;21.53;42.74;97975.03;5026377;28;20375;-63
2021/05/01 11:17:47;;;;;;;115.38;108.78;;;;;;;21.59;42.38;97966.78;5025776;28;20294;-61
2021/05/01 11:20:16;;;;;;;483.25;454.85;;;;;;;21.74;41.50;97971.69;5023057;28;20362;-64
2021/05/01 11:22:44;;;;;;;193.32;184.13;;;;;;;21.70;42.26;97974.63;5026092;28;20091;-63
2021/05/01 11:25:21;;;;;;;490.55;463.30;;;;;;;21.94;41.22;97958.97;5023327;28;20037;-63